Terminal Aerodrome Forecast
Issued by NWS

Home | Current Version | Previous Version | Graphics & Text | Print | Product List | Glossary On
Versions: 1 2 3 4 5 6 7 8 9 10 11 12 13 14 15 16 17 18 19 20 21
775
FTUS43 KMPX 201139
TAFAXN
TAF
KAXN 201139Z 2012/2112 16012KT P6SM VCSH SCT015 OVC080
     FM201600 17012KT 6SM -SHRA BR VCTS SCT008 OVC012CB
      TEMPO 2017/2021 3SM SHRA OVC008
     FM202100 24013KT P6SM VCSH BKN020
     FM210000 28012G18KT P6SM SCT020 BKN080
     FM210300 28008KT P6SM SKC=

USA.gov is the U.S. government's official web portal to all federal, state and local government web resources and services.